sensor_id;sensor_type;location;lat;lon;timestamp;pressure;altitude;pressure_sealevel;temperature;humidity
76331;BME280;65148;51.912;15.570;2023-02-01T00:07:19;100915.38;;;3.77;100.00
76331;BME280;65148;51.912;15.570;2023-02-01T00:22:19;100944.77;;;3.78;100.00
76331;BME280;65148;51.912;15.570;2023-02-01T00:37:38;100962.80;;;3.66;100.00
76331;BME280;65148;51.912;15.570;2023-02-01T00:52:40;100950.48;;;3.70;100.00
76331;BME280;65148;51.912;15.570;2023-02-01T01:07:41;100963.27;;;3.63;100.00
76331;BME280;65148;51.912;15.570;2023-02-01T01:22:41;100966.84;;;4.03;100.00
76331;BME280;65148;51.912;15.570;2023-02-01T01:37:59;100959.95;;;3.96;99.96
76331;BME280;65148;51.912;15.570;2023-02-01T01:53:03;100960.74;;;4.08;99.85
76331;BME280;65148;51.912;15.570;2023-02-01T02:08:05;100948.53;;;4.17;98.42
76331;BME280;65148;51.912;15.570;2023-02-01T02:53:52;100923.27;;;4.07;94.93
76331;BME280;65148;51.912;15.570;2023-02-01T03:09:35;100914.55;;;3.76;94.96
76331;BME280;65148;51.912;15.570;2023-02-01T03:24:44;100897.35;;;3.77;94.56
76331;BME280;65148;51.912;15.570;2023-02-01T03:55:16;100893.23;;;3.86;93.27
76331;BME280;65148;51.912;15.570;2023-02-01T04:10:18;100890.27;;;3.99;92.82
76331;BME280;65148;51.912;15.570;2023-02-01T04:25:19;100895.08;;;3.97;92.51
76331;BME280;65148;51.912;15.570;2023-02-01T04:40:21;100884.82;;;4.11;92.08
76331;BME280;65148;51.912;15.570;2023-02-01T04:55:37;100859.24;;;3.97;91.92
76331;BME280;65148;51.912;15.570;2023-02-01T05:10:37;100843.55;;;3.94;91.96
76331;BME280;65148;51.912;15.570;2023-02-01T05:25:38;100843.98;;;4.31;90.33
76331;BME280;65148;51.912;15.570;2023-02-01T05:40:40;100832.56;;;4.40;89.88
76331;BME280;65148;51.912;15.570;2023-02-01T05:56:00;100824.88;;;4.32;88.72
76331;BME280;65148;51.912;15.570;2023-02-01T06:11:03;100831.98;;;4.38;88.50
76331;BME280;65148;51.912;15.570;2023-02-01T06:26:06;100819.97;;;4.29;87.68
76331;BME280;65148;51.912;15.570;2023-02-01T06:41:10;100821.54;;;4.42;87.15
76331;BME280;65148;51.912;15.570;2023-02-01T06:56:23;100825.52;;;4.39;87.17
76331;BME280;65148;51.912;15.570;2023-02-01T07:11:24;100810.84;;;4.64;87.09
76331;BME280;65148;51.912;15.570;2023-02-01T07:26:28;100815.56;;;4.57;86.73
76331;BME280;65148;51.912;15.570;2023-02-01T07:41:29;100795.13;;;4.44;92.72
76331;BME280;65148;51.912;15.570;2023-02-01T07:56:48;100779.91;;;4.04;96.82
76331;BME280;65148;51.912;15.570;2023-02-01T08:11:49;100777.14;;;3.99;98.23
76331;BME280;65148;51.912;15.570;2023-02-01T08:26:50;100777.33;;;4.10;98.12
76331;BME280;65148;51.912;15.570;2023-02-01T08:41:51;100773.33;;;4.46;96.86
76331;BME280;65148;51.912;15.570;2023-02-01T08:57:17;100756.52;;;4.22;96.39
76331;BME280;65148;51.912;15.570;2023-02-01T09:12:18;100737.88;;;4.37;96.33
76331;BME280;65148;51.912;15.570;2023-02-01T09:27:19;100709.48;;;4.29;97.21
76331;BME280;65148;51.912;15.570;2023-02-01T09:42:36;100705.17;;;4.67;94.73
76331;BME280;65148;51.912;15.570;2023-02-01T10:13:09;100686.29;;;3.78;100.00
76331;BME280;65148;51.912;15.570;2023-02-01T10:28:15;100664.48;;;3.63;100.00
76331;BME280;65148;51.912;15.570;2023-02-01T10:43:31;100659.75;;;3.70;100.00
76331;BME280;65148;51.912;15.570;2023-02-01T10:58:36;100708.13;;;3.82;100.00
76331;BME280;65148;51.912;15.570;2023-02-01T11:13:43;100692.26;;;3.97;100.00
76331;BME280;65148;51.912;15.570;2023-02-01T11:29:14;100724.10;;;4.00;100.00
76331;BME280;65148;51.912;15.570;2023-02-01T11:44:23;100721.84;;;3.80;100.00
76331;BME280;65148;51.912;15.570;2023-02-01T12:31:00;100715.28;;;4.21;100.00
76331;BME280;65148;51.912;15.570;2023-02-01T12:45:56;100739.43;;;4.33;100.00
76331;BME280;65148;51.912;15.570;2023-02-01T13:16:19;100749.41;;;4.49;100.00
76331;BME280;65148;51.912;15.570;2023-02-01T14:01:32;100691.67;;;5.27;96.80
76331;BME280;65148;51.912;15.570;2023-02-01T14:16:34;100674.59;;;5.00;95.21
76331;BME280;65148;51.912;15.570;2023-02-01T14:47:08;100679.70;;;4.96;96.84
76331;BME280;65148;51.912;15.570;2023-02-01T15:17:28;100686.41;;;4.94;96.50
76331;BME280;65148;51.912;15.570;2023-02-01T15:32:48;100636.15;;;4.88;97.61
76331;BME280;65148;51.912;15.570;2023-02-01T15:47:51;100734.66;;;3.45;98.16
76331;BME280;65148;51.912;15.570;2023-02-01T16:02:59;100661.15;;;2.87;100.00
76331;BME280;65148;51.912;15.570;2023-02-01T16:18:28;100640.63;;;2.70;100.00
76331;BME280;65148;51.912;15.570;2023-02-01T16:33:29;100607.92;;;3.01;100.00
76331;BME280;65148;51.912;15.570;2023-02-01T16:48:35;100591.39;;;3.09;100.00
76331;BME280;65148;51.912;15.570;2023-02-01T17:03:37;100589.66;;;3.48;100.00
76331;BME280;65148;51.912;15.570;2023-02-01T17:18:59;100559.39;;;3.58;100.00
76331;BME280;65148;51.912;15.570;2023-02-01T17:34:02;100524.98;;;3.77;100.00
76331;BME280;65148;51.912;15.570;2023-02-01T17:49:03;100513.91;;;3.40;100.00
76331;BME280;65148;51.912;15.570;2023-02-01T18:04:12;100479.34;;;3.32;100.00
76331;BME280;65148;51.912;15.570;2023-02-01T18:19:28;100465.16;;;3.19;100.00
76331;BME280;65148;51.912;15.570;2023-02-01T18:34:29;100481.80;;;3.33;100.00
76331;BME280;65148;51.912;15.570;2023-02-01T18:49:30;100521.53;;;3.14;100.00
76331;BME280;65148;51.912;15.570;2023-02-01T19:04:31;100553.81;;;2.69;100.00
76331;BME280;65148;51.912;15.570;2023-02-01T19:19:51;100580.62;;;2.41;100.00
76331;BME280;65148;51.912;15.570;2023-02-01T19:34:52;100590.08;;;2.43;100.00
76331;BME280;65148;51.912;15.570;2023-02-01T19:49:52;100594.27;;;2.51;100.00
76331;BME280;65148;51.912;15.570;2023-02-01T20:04:54;100604.52;;;2.66;100.00
76331;BME280;65148;51.912;15.570;2023-02-01T20:20:13;100628.88;;;2.87;100.00
76331;BME280;65148;51.912;15.570;2023-02-01T20:35:17;100648.02;;;3.03;100.00
76331;BME280;65148;51.912;15.570;2023-02-01T20:50:18;100661.87;;;3.23;100.00
76331;BME280;65148;51.912;15.570;2023-02-01T21:05:19;100660.02;;;3.40;100.00
76331;BME280;65148;51.912;15.570;2023-02-01T21:20:38;100668.48;;;3.32;100.00
76331;BME280;65148;51.912;15.570;2023-02-01T21:35:41;100690.15;;;3.54;100.00
76331;BME280;65148;51.912;15.570;2023-02-01T21:50:42;100697.83;;;3.62;100.00
76331;BME280;65148;51.912;15.570;2023-02-01T22:05:48;100693.91;;;3.70;100.00
76331;BME280;65148;51.912;15.570;2023-02-01T22:21:00;100691.61;;;3.45;100.00
76331;BME280;65148;51.912;15.570;2023-02-01T22:36:04;100688.41;;;3.48;100.00
76331;BME280;65148;51.912;15.570;2023-02-01T22:51:06;100686.50;;;3.32;100.00
76331;BME280;65148;51.912;15.570;2023-02-01T23:06:35;100699.48;;;3.35;100.00
76331;BME280;65148;51.912;15.570;2023-02-01T23:21:37;100683.42;;;3.40;100.00
76331;BME280;65148;51.912;15.570;2023-02-01T23:36:38;100670.02;;;3.56;100.00
76331;BME280;65148;51.912;15.570;2023-02-01T23:51:39;100679.98;;;3.56;100.00
